Time;durP1;ratioP1;P1;durP2;ratioP2;P2;SDS_P1;SDS_P2;PMS_P1;PMS_P2;Temp;Humidity;BMP_temperature;BMP_pressure;BME280_temperature;BME280_humidity;BME280_pressure;Samples;Min_cycle;Max_cycle;Signal;HPM_P1;HPM_P2
2023/05/22 05:11:01;;;;;;;14.87;8.10;;;;;;;;;;5095029;27;20698;-83
2023/05/22 05:18:23;;;;;;;11.63;7.67;;;;;;;;;;5074134;28;20547;-79
2023/05/22 05:24:56;;;;;;;10.17;6.97;;;13.40;99.90;;;;;;5136128;27;20271;-80
2023/05/22 05:29:53;;;;;;;8.50;6.90;;;;;;;;;;5073780;28;20595;-78
2023/05/22 05:34:56;;;;;;;8.37;6.93;;;14.00;99.90;;;;;;5132531;27;20263;-81
2023/05/22 05:39:23;;;;;;;10.43;6.63;;;;;;;;;;5134302;27;20696;-83
2023/05/22 05:44:43;;;;;;;12.30;7.17;;;14.50;99.90;;;;;;5133381;27;20308;-83
2023/05/22 05:48:41;;;;;;;8.37;6.80;;;14.60;99.90;;;;;;5133954;27;20748;-82
2023/05/22 05:52:36;;;;;;;9.77;6.80;;;15.10;99.90;;;;;;5113225;27;20269;-84
2023/05/22 05:56:34;;;;;;;11.90;6.73;;;15.50;99.90;;;;;;5134136;27;20274;-84
2023/05/22 06:00:55;;;;;;;10.90;7.17;;;15.70;99.90;;;;;;5133948;27;20309;-82
2023/05/22 06:04:48;;;;;;;14.37;7.77;;;15.80;99.90;;;;;;5133906;27;20274;-82
2023/05/22 06:08:43;;;;;;;8.63;6.90;;;15.90;99.90;;;;;;5069777;27;20930;-84
2023/05/22 06:12:32;;;;;;;8.73;6.53;;;16.10;99.90;;;;;;5053405;28;20538;-82
2023/05/22 06:16:29;;;;;;;12.17;7.17;;;16.40;99.90;;;;;;5176658;27;20400;-80
2023/05/22 06:21:31;;;;;;;11.73;7.43;;;16.80;99.90;;;;;;5115620;27;20766;-83
2023/05/22 06:23:57;;;;;;;12.10;6.67;;;17.00;99.90;;;;;;5112052;28;20264;-85
2023/05/22 06:27:28;;;;;;;10.60;6.80;;;17.20;99.90;;;;;;5134805;27;20292;-82
2023/05/22 06:29:54;;;;;;;10.10;6.67;;;17.50;99.90;;;;;;5115723;28;20227;-84
2023/05/22 06:32:20;;;;;;;10.00;6.20;;;17.70;99.90;;;;;;5131466;28;20205;-85
2023/05/22 06:35:32;;;;;;;15.37;6.40;;;17.80;99.90;;;;;;5115265;27;20271;-83
2023/05/22 06:40:31;;;;;;;8.73;5.73;;;18.00;99.90;;;;;;5138422;27;20294;-83
2023/05/22 06:44:31;;;;;;;6.33;5.73;;;18.10;99.90;;;;;;5115073;27;20277;-85
2023/05/22 06:46:57;;;;;;;9.53;5.67;;;18.20;99.90;;;;;;5112410;28;20270;-84
2023/05/22 06:49:22;;;;;;;6.93;5.63;;;18.30;99.90;;;;;;5113727;28;20174;-85
2023/05/22 06:51:48;;;;;;;7.60;5.73;;;18.40;99.90;;;;;;5112397;28;20748;-85
2023/05/22 06:54:14;;;;;;;8.17;5.97;;;18.60;99.90;;;;;;5113004;28;20187;-84
2023/05/22 06:56:40;;;;;;;6.80;5.37;;;18.70;99.90;;;;;;5114650;28;20187;-85
2023/05/22 06:59:06;;;;;;;5.40;4.67;;;18.80;99.90;;;;;;5113071;28;20180;-85
2023/05/22 07:01:32;;;;;;;8.00;5.50;;;19.00;99.90;;;;;;5113473;28;20218;-84
2023/05/22 07:04:03;;;;;;;7.67;5.47;;;19.20;99.90;;;;;;5113573;28;20243;-84
2023/05/22 07:06:37;;;;;;;8.53;5.17;;;19.40;99.90;;;;;;5113522;28;20156;-84
2023/05/22 07:09:04;;;;;;;11.03;5.30;;;19.60;99.90;;;;;;5112241;28;20182;-81
2023/05/22 07:11:30;;;;;;;6.93;5.07;;;19.70;99.90;;;;;;5110181;28;20742;-81
2023/05/22 07:13:56;;;;;;;6.00;4.40;;;19.70;99.90;;;;;;5110467;28;20184;-82
2023/05/22 07:16:22;;;;;;;5.90;5.33;;;19.70;99.90;;;;;;5110761;28;20241;-83
2023/05/22 07:18:48;;;;;;;7.17;5.30;;;19.90;99.90;;;;;;5110546;28;20271;-83
2023/05/22 07:21:13;;;;;;;5.97;4.60;;;20.00;99.90;;;;;;5111887;28;20199;-82
2023/05/22 07:23:39;;;;;;;13.77;5.23;;;20.20;99.90;;;;;;5112876;28;20253;-82
2023/05/22 07:26:06;;;;;;;5.60;4.93;;;20.20;99.90;;;;;;5113928;28;20806;-81
2023/05/22 07:28:32;;;;;;;5.97;5.10;;;20.00;99.90;;;;;;5112679;28;20204;-82
2023/05/22 07:30:57;;;;;;;6.33;4.67;;;20.00;99.90;;;;;;5111947;28;20236;-81
2023/05/22 07:33:24;;;;;;;10.17;5.27;;;20.10;99.90;;;;;;5111848;28;20186;-83
2023/05/22 07:35:50;;;;;;;8.63;4.80;;;20.10;99.90;;;;;;5113434;28;20541;-83
2023/05/22 07:38:16;;;;;;;6.13;5.10;;;20.30;99.90;;;;;;5112108;28;20180;-85
2023/05/22 07:40:42;;;;;;;6.37;5.37;;;20.30;99.90;;;;;;5113629;28;20253;-82
2023/05/22 07:43:08;;;;;;;6.20;5.13;;;20.40;99.90;;;;;;5113774;28;20204;-83
2023/05/22 07:45:33;;;;;;;6.67;5.17;;;20.60;99.90;;;;;;5113220;28;20172;-83
2023/05/22 07:48:00;;;;;;;5.93;5.23;;;20.70;99.90;;;;;;5116255;28;20173;-81
2023/05/22 07:50:29;;;;;;;7.10;5.57;;;20.90;99.90;;;;;;5111441;28;20225;-83
2023/05/22 07:52:55;;;;;;;6.67;5.13;;;20.90;99.90;;;;;;5111326;28;20184;-83
2023/05/22 07:55:21;;;;;;;6.40;5.50;;;20.90;99.90;;;;;;5101745;28;20199;-84
2023/05/22 07:57:46;;;;;;;6.47;5.70;;;20.90;99.90;;;;;;5099184;28;20634;-83
2023/05/22 08:00:13;;;;;;;12.03;5.23;;;21.00;99.90;;;;;;5097925;28;20216;-83
2023/05/22 08:02:42;;;;;;;5.73;4.90;;;21.20;99.90;;;;;;5097980;28;20204;-83
2023/05/22 08:05:08;;;;;;;7.83;5.77;;;21.20;99.90;;;;;;5097656;28;20186;-83
2023/05/22 08:07:34;;;;;;;8.63;4.97;;;21.30;99.90;;;;;;5099382;28;20233;-85
2023/05/22 08:10:03;;;;;;;5.93;5.43;;;21.50;99.90;;;;;;5097530;28;20257;-82
2023/05/22 08:12:28;;;;;;;5.27;4.77;;;21.60;99.90;;;;;;5099607;28;20206;-84
2023/05/22 08:14:54;;;;;;;6.57;5.10;;;21.70;99.90;;;;;;5097837;28;20600;-83
2023/05/22 08:17:20;;;;;;;5.47;4.97;;;21.80;99.90;;;;;;5098157;28;20686;-83
2023/05/22 08:19:46;;;;;;;8.10;5.73;;;22.30;99.90;;;;;;5097875;28;20229;-83
2023/05/22 08:22:11;;;;;;;6.87;5.20;;;22.90;99.90;;;;;;5097737;28;20205;-85
2023/05/22 08:24:37;;;;;;;6.97;5.13;;;23.50;99.90;;;;;;5100078;28;20174;-84
2023/05/22 08:27:03;;;;;;;7.07;5.47;;;23.90;99.90;;;;;;5100437;28;20181;-84
2023/05/22 08:29:29;;;;;;;5.87;5.23;;;24.10;99.90;;;;;;5103084;28;20227;-83
2023/05/22 08:31:56;;;;;;;7.90;4.97;;;24.10;99.90;;;;;;5102908;28;20200;-83
2023/05/22 08:34:23;;;;;;;6.63;5.33;;;24.00;99.90;;;;;;5102677;28;20183;-83
2023/05/22 08:36:49;;;;;;;6.10;5.03;;;24.20;99.90;;;;;;5099951;28;20168;-84
2023/05/22 08:39:16;;;;;;;7.23;5.30;;;24.10;99.90;;;;;;5100709;28;20171;-84
2023/05/22 08:41:42;;;;;;;6.77;5.37;;;23.80;99.90;;;;;;5097341;28;20217;-86
2023/05/22 08:44:09;;;;;;;6.17;5.47;;;23.80;99.90;;;;;;5098196;28;20208;-84
2023/05/22 08:46:40;;;;;;;7.73;5.90;;;23.70;99.90;;;;;;5097985;28;20180;-83
2023/05/22 08:49:10;;;;;;;8.37;5.70;;;23.80;99.90;;;;;;5099829;28;20610;-84
2023/05/22 08:51:41;;;;;;;8.57;5.53;;;23.70;99.90;;;;;;5098295;28;20188;-84
2023/05/22 08:54:07;;;;;;;6.57;5.27;;;23.80;99.90;;;;;;5100035;28;20239;-83
2023/05/22 08:56:35;;;;;;;5.63;5.00;;;23.90;99.90;;;;;;5100705;28;20222;-85
2023/05/22 08:59:01;;;;;;;7.50;4.67;;;24.20;99.90;;;;;;5100916;28;20179;-85
2023/05/22 09:01:28;;;;;;;5.70;4.90;;;24.30;99.90;;;;;;5100607;28;20254;-84
2023/05/22 09:04:00;;;;;;;7.10;5.13;;;24.70;99.90;;;;;;5098324;28;20236;-86
2023/05/22 09:06:27;;;;;;;6.40;5.70;;;25.00;99.90;;;;;;5098053;28;20177;-86
2023/05/22 09:08:56;;;;;;;7.07;5.43;;;25.20;99.90;;;;;;5104390;28;20194;-84
2023/05/22 09:11:22;;;;;;;6.83;5.33;;;25.40;99.90;;;;;;5106689;28;20657;-83
2023/05/22 09:13:50;;;;;;;8.13;5.27;;;25.70;99.00;;;;;;5099326;28;20186;-82
2023/05/22 09:16:16;;;;;;;6.50;5.43;;;25.90;97.70;;;;;;5096038;28;20287;-83
2023/05/22 09:18:42;;;;;;;6.10;5.33;;;26.20;98.60;;;;;;5097119;28;20207;-83
2023/05/22 09:21:09;;;;;;;7.70;5.50;;;26.60;97.00;;;;;;5095994;28;20681;-81
2023/05/22 09:23:36;;;;;;;6.93;5.27;;;26.60;95.10;;;;;;5096030;28;20200;-84
2023/05/22 09:26:02;;;;;;;7.20;5.33;;;26.60;95.10;;;;;;5096885;28;20637;-82
2023/05/22 09:28:34;;;;;;;6.00;5.40;;;26.70;95.90;;;;;;5096687;28;20173;-81
2023/05/22 09:31:00;;;;;;;6.00;5.40;;;26.70;94.90;;;;;;5098543;28;20264;-83
2023/05/22 09:33:26;;;;;;;6.90;5.40;;;26.60;95.90;;;;;;5103782;28;20173;-81
2023/05/22 09:35:52;;;;;;;6.43;5.73;;;26.80;95.30;;;;;;5095783;28;20187;-82
2023/05/22 09:38:20;;;;;;;6.20;5.57;;;26.90;93.30;;;;;;5095560;28;20186;-81
2023/05/22 09:40:46;;;;;;;8.20;5.17;;;26.50;95.10;;;;;;5100931;28;20197;-83
2023/05/22 09:43:16;;;;;;;6.80;5.87;;;26.60;94.50;;;;;;5098268;28;20272;-83
2023/05/22 09:45:42;;;;;;;6.23;5.63;;;26.50;93.60;;;;;;5095572;28;20169;-82
2023/05/22 09:48:09;;;;;;;6.77;6.07;;;26.50;98.10;;;;;;5095290;28;20183;-83
2023/05/22 09:50:35;;;;;;;10.43;6.03;;;26.70;93.70;;;;;;5096294;28;20195;-83
2023/05/22 09:53:02;;;;;;;6.63;5.87;;;26.70;95.00;;;;;;5094758;28;20294;-82
2023/05/22 09:55:29;;;;;;;6.53;5.93;;;26.60;93.20;;;;;;5096210;28;20199;-81
2023/05/22 09:57:56;;;;;;;6.27;5.57;;;26.40;93.10;;;;;;5095654;28;20168;-82
2023/05/22 10:00:23;;;;;;;7.50;5.90;;;26.60;95.80;;;;;;5095965;28;20177;-83
2023/05/22 10:02:53;;;;;;;7.43;6.73;;;26.90;95.70;;;;;;5095149;28;20200;-83
2023/05/22 10:05:20;;;;;;;6.13;5.60;;;27.00;92.60;;;;;;5095079;28;20181;-82
2023/05/22 10:07:49;;;;;;;6.70;5.80;;;26.90;93.00;;;;;;5097351;28;20206;-84
2023/05/22 10:10:20;;;;;;;8.17;5.90;;;26.80;91.40;;;;;;5096536;28;20171;-83
2023/05/22 10:13:07;;;;;;;6.30;5.70;;;26.80;94.60;;;;;;5096406;28;20184;-82
2023/05/22 10:15:34;;;;;;;8.20;6.70;;;26.80;91.40;;;;;;5095665;28;20173;-83
2023/05/22 10:18:00;;;;;;;11.33;6.07;;;26.80;92.20;;;;;;5096746;28;20669;-84
2023/05/22 10:20:28;;;;;;;8.00;6.27;;;26.90;90.50;;;;;;5097123;28;20251;-84
2023/05/22 10:22:54;;;;;;;7.70;5.83;;;26.70;91.80;;;;;;5095739;28;20206;-83
2023/05/22 10:25:21;;;;;;;7.33;6.63;;;26.90;91.80;;;;;;5096913;28;20535;-84
2023/05/22 10:27:47;;;;;;;5.93;5.37;;;27.40;90.40;;;;;;5095515;28;20657;-84
2023/05/22 10:30:35;;;;;;;7.63;6.37;;;27.60;95.60;;;;;;5096556;28;20288;-84
2023/05/22 10:33:18;;;;;;;9.37;6.30;;;27.80;91.80;;;;;;5097739;28;20169;-82
2023/05/22 10:35:54;;;;;;;9.43;6.23;;;27.90;93.10;;;;;;5099192;28;20169;-82
2023/05/22 10:38:44;;;;;;;8.33;6.40;;;28.00;91.30;;;;;;5095495;28;20537;-80
2023/05/22 10:41:10;;;;;;;7.13;6.43;;;28.20;91.10;;;;;;5096906;28;20201;-83
2023/05/22 10:43:43;;;;;;;6.97;6.20;;;28.00;91.90;;;;;;5097361;28;20303;-83
2023/05/22 10:46:11;;;;;;;7.00;6.30;;;28.00;93.10;;;;;;5098945;28;20268;-85
2023/05/22 10:48:38;;;;;;;9.07;5.77;;;28.10;91.50;;;;;;5097901;28;20177;-86
2023/05/22 10:51:05;;;;;;;7.10;6.50;;;28.10;91.20;;;;;;5095421;28;20199;-83
2023/05/22 10:53:31;;;;;;;6.30;5.70;;;28.70;95.00;;;;;;5097138;28;20169;-83
2023/05/22 10:56:09;;;;;;;7.17;6.20;;;28.70;93.30;;;;;;5097754;28;20178;-84
2023/05/22 10:58:36;;;;;;;6.70;6.00;;;28.80;93.90;;;;;;5095953;28;20235;-85
2023/05/22 11:01:11;;;;;;;7.97;6.00;;;29.00;92.30;;;;;;5095827;28;20229;-84
2023/05/22 11:03:53;;;;;;;5.97;5.23;;;28.90;89.10;;;;;;5096325;28;20561;-85
2023/05/22 11:06:36;;;;;;;5.93;5.33;;;28.60;91.10;;;;;;5097691;28;20584;-85
2023/05/22 11:09:28;;;;;;;6.73;5.63;;;29.00;90.50;;;;;;5100790;28;20173;-83
2023/05/22 11:12:23;;;;;;;6.30;5.70;;;29.40;93.50;;;;;;5099005;28;20212;-84
2023/05/22 11:15:05;;;;;;;8.03;5.43;;;29.90;89.00;;;;;;5095024;28;20177;-84
2023/05/22 11:17:32;;;;;;;6.00;5.40;;;29.90;88.90;;;;;;5095219;28;20176;-83
2023/05/22 11:20:04;;;;;;;6.23;5.47;;;29.40;91.10;;;;;;5096094;28;20174;-85
2023/05/22 11:22:43;;;;;;;6.87;5.00;;;29.70;90.80;;;;;;5096550;28;20233;-85
2023/05/22 11:25:10;;;;;;;5.77;4.93;;;30.30;88.60;;;;;;5096408;28;20209;-84
2023/05/22 11:27:39;;;;;;;9.47;6.73;;;30.70;91.90;;;;;;5096673;28;20174;-80
2023/05/22 11:30:06;;;;;;;6.93;6.13;;;31.00;85.00;;;;;;5096877;28;20218;-80
2023/05/22 11:32:35;;;;;;;6.90;5.40;;;31.10;86.20;;;;;;5099843;28;20194;-82
2023/05/22 11:35:02;;;;;;;6.67;5.03;;;31.20;88.00;;;;;;5099575;28;20186;-83
2023/05/22 11:37:28;;;;;;;6.17;5.57;;;31.20;80.50;;;;;;5098854;28;20173;-83
2023/05/22 11:40:02;;;;;;;7.00;5.23;;;31.50;78.60;;;;;;5099139;28;20181;-84
2023/05/22 11:42:28;;;;;;;6.33;5.37;;;31.20;72.50;;;;;;5098313;28;20785;-84
2023/05/22 11:44:54;;;;;;;5.87;5.27;;;31.20;81.50;;;;;;5100054;28;20163;-84
2023/05/22 11:47:20;;;;;;;5.40;4.90;;;31.40;83.10;;;;;;5102198;28;20175;-81
2023/05/22 11:49:46;;;;;;;12.07;5.40;;;31.80;81.10;;;;;;5100921;28;20610;-82
2023/05/22 11:52:12;;;;;;;6.53;4.70;;;32.10;77.50;;;;;;5102695;28;20283;-80
2023/05/22 11:54:37;;;;;;;5.73;5.10;;;32.00;69.40;;;;;;5103972;28;20175;-80
2023/05/22 11:57:07;;;;;;;4.37;3.93;;;32.10;78.90;;;;;;5099663;28;20231;-81
2023/05/22 11:59:33;;;;;;;5.17;4.57;;;32.10;67.90;;;;;;5099249;28;20176;-81
2023/05/22 12:01:59;;;;;;;5.53;4.97;;;32.10;67.70;;;;;;5099308;28;20560;-82
2023/05/22 12:04:25;;;;;;;6.10;5.37;;;32.40;70.40;;;;;;5099639;28;20199;-84
2023/05/22 12:06:52;;;;;;;5.77;5.10;;;32.90;67.10;;;;;;5098360;28;20191;-84
2023/05/22 12:09:18;;;;;;;5.90;5.00;;;33.10;73.00;;;;;;5098451;28;20187;-82
2023/05/22 12:11:46;;;;;;;9.83;5.43;;;32.80;66.80;;;;;;5097796;28;20566;-83
2023/05/22 12:14:11;;;;;;;7.03;4.80;;;33.00;65.80;;;;;;5098094;28;20646;-83
2023/05/22 12:16:37;;;;;;;6.37;5.30;;;33.50;67.20;;;;;;5098689;28;20186;-82
2023/05/22 12:19:10;;;;;;;5.30;4.53;;;33.60;67.80;;;;;;5099275;28;20183;-83
2023/05/22 12:21:40;;;;;;;5.87;4.77;;;33.40;60.00;;;;;;5097217;28;20233;-83
2023/05/22 12:24:07;;;;;;;5.00;4.50;;;32.80;59.80;;;;;;5098569;28;20246;-81
2023/05/22 12:26:33;;;;;;;5.00;4.60;;;32.80;56.80;;;;;;5098817;28;20176;-81
2023/05/22 12:28:59;;;;;;;5.63;5.13;;;32.90;68.80;;;;;;5098159;28;20187;-84
2023/05/22 12:31:25;;;;;;;6.93;4.60;;;33.20;60.20;;;;;;5098625;28;20199;-82
2023/05/22 12:33:55;;;;;;;5.10;4.33;;;33.40;60.90;;;;;;5098064;28;20188;-81
2023/05/22 12:36:31;;;;;;;4.83;4.43;;;33.50;59.80;;;;;;5098521;28;20173;-82
2023/05/22 12:38:57;;;;;;;5.97;4.73;;;33.40;58.40;;;;;;5099104;28;20190;-83
2023/05/22 12:41:22;;;;;;;6.87;4.50;;;33.60;61.10;;;;;;5097839;28;20240;-84
2023/05/22 12:43:48;;;;;;;5.50;5.00;;;33.50;64.70;;;;;;5098950;28;20207;-83
2023/05/22 12:46:14;;;;;;;7.30;5.03;;;33.60;62.30;;;;;;5098818;28;20543;-82
2023/05/22 12:48:40;;;;;;;6.47;5.33;;;33.80;64.50;;;;;;5099592;28;20166;-83
2023/05/22 12:51:08;;;;;;;6.37;5.57;;;33.70;66.10;;;;;;5100044;28;20234;-83
2023/05/22 12:53:33;;;;;;;7.03;5.50;;;33.70;60.40;;;;;;5098010;28;20587;-84
2023/05/22 12:55:59;;;;;;;7.20;5.10;;;33.70;56.50;;;;;;5099254;28;20232;-82
2023/05/22 12:58:25;;;;;;;5.53;5.03;;;33.50;59.10;;;;;;5099351;28;20172;-81
2023/05/22 13:00:51;;;;;;;6.03;5.03;;;33.40;60.00;;;;;;5099407;28;20680;-83
2023/05/22 13:03:17;;;;;;;5.53;5.03;;;33.20;56.70;;;;;;5108183;28;20187;-82
2023/05/22 13:05:42;;;;;;;6.87;5.20;;;33.40;59.20;;;;;;5102377;28;20200;-81
2023/05/22 13:08:08;;;;;;;6.60;5.03;;;33.40;56.00;;;;;;5099447;28;20169;-81
2023/05/22 13:10:34;;;;;;;4.63;4.23;;;33.40;56.00;;;;;;5099554;28;20564;-83
2023/05/22 13:13:00;;;;;;;6.27;4.43;;;33.50;56.20;;;;;;5100701;28;20277;-81
2023/05/22 13:15:28;;;;;;;4.80;4.40;;;33.50;55.80;;;;;;5097206;28;20208;-79
2023/05/22 13:17:55;;;;;;;7.27;4.83;;;33.60;54.90;;;;;;5097666;28;20625;-79
2023/05/22 13:20:22;;;;;;;5.73;4.53;;;33.50;56.60;;;;;;5097548;28;20182;-79
2023/05/22 13:22:48;;;;;;;6.97;4.97;;;33.20;58.60;;;;;;5097742;28;20180;-79
2023/05/22 13:25:13;;;;;;;4.87;4.40;;;32.40;59.20;;;;;;5097797;28;20549;-80
2023/05/22 13:27:39;;;;;;;7.00;5.17;;;32.30;59.70;;;;;;5097183;28;20178;-80
2023/05/22 13:30:06;;;;;;;4.93;4.23;;;32.50;56.30;;;;;;5097161;28;20186;-79
2023/05/22 13:32:34;;;;;;;7.67;4.77;;;32.90;55.10;;;;;;5098136;28;20193;-80
2023/05/22 13:35:00;;;;;;;5.87;4.73;;;32.90;55.80;;;;;;5096852;28;20184;-80
2023/05/22 13:37:26;;;;;;;6.47;4.67;;;32.70;55.00;;;;;;5096177;28;20172;-81
2023/05/22 13:39:51;;;;;;;5.40;4.90;;;32.60;58.10;;;;;;5095674;28;20234;-81
2023/05/22 13:42:17;;;;;;;5.47;4.63;;;32.90;54.40;;;;;;5097315;28;20201;-78
2023/05/22 13:44:43;;;;;;;5.80;4.67;;;32.90;64.40;;;;;;5097925;28;20184;-78
2023/05/22 13:47:09;;;;;;;7.40;5.57;;;33.00;57.30;;;;;;5096670;28;20274;-79
2023/05/22 13:49:34;;;;;;;5.67;5.10;;;32.90;63.00;;;;;;5096697;28;20540;-81
2023/05/22 13:52:00;;;;;;;10.27;5.43;;;32.80;59.80;;;;;;5096418;28;20198;-80
2023/05/22 13:54:26;;;;;;;7.37;5.70;;;33.20;64.10;;;;;;5097065;28;20200;-80
2023/05/22 13:56:52;;;;;;;7.30;5.70;;;33.30;58.60;;;;;;5097226;28;20173;-80
2023/05/22 13:59:17;;;;;;;7.83;5.97;;;33.50;59.00;;;;;;5097084;28;20166;-81
2023/05/22 14:01:43;;;;;;;7.43;5.30;;;33.60;59.80;;;;;;5096887;28;20195;-81
2023/05/22 14:04:09;;;;;;;5.03;4.60;;;33.50;58.70;;;;;;5095423;28;20219;-81
2023/05/22 14:06:35;;;;;;;6.23;5.07;;;32.90;57.60;;;;;;5096625;28;20174;-80
2023/05/22 14:09:00;;;;;;;9.93;5.17;;;32.30;56.90;;;;;;5097423;28;20169;-81
2023/05/22 14:11:26;;;;;;;8.43;4.97;;;31.30;57.70;;;;;;5095508;28;20221;-81
2023/05/22 14:13:53;;;;;;;6.53;5.10;;;30.10;60.10;;;;;;5096727;28;20199;-81
2023/05/22 14:16:21;;;;;;;5.97;4.77;;;29.80;60.40;;;;;;5096224;28;20243;-80
2023/05/22 14:18:47;;;;;;;6.57;4.87;;;30.30;59.40;;;;;;5096038;28;20171;-81
2023/05/22 14:21:14;;;;;;;5.47;4.90;;;30.80;57.80;;;;;;5096816;28;20197;-82
2023/05/22 14:23:40;;;;;;;6.07;4.77;;;31.50;56.80;;;;;;5096205;28;20176;-80
2023/05/22 14:26:06;;;;;;;6.17;4.47;;;32.20;58.80;;;;;;5096291;28;20195;-81
2023/05/22 14:28:31;;;;;;;7.03;4.47;;;32.60;55.30;;;;;;5101822;28;20183;-81
2023/05/22 14:30:57;;;;;;;7.93;4.53;;;32.90;56.40;;;;;;5097505;28;20206;-81
2023/05/22 14:33:23;;;;;;;6.33;4.67;;;33.00;54.10;;;;;;5096240;28;20213;-80
2023/05/22 14:35:50;;;;;;;5.20;4.70;;;32.80;60.00;;;;;;5095127;28;20199;-80
2023/05/22 14:38:15;;;;;;;7.33;4.47;;;32.70;56.40;;;;;;5094982;28;20205;-80
2023/05/22 14:40:41;;;;;;;5.90;4.33;;;32.40;54.20;;;;;;5095865;28;20194;-80
2023/05/22 14:43:07;;;;;;;8.77;4.83;;;31.10;55.20;;;;;;5095813;28;20224;-80
2023/05/22 14:45:32;;;;;;;6.13;4.57;;;30.10;57.10;;;;;;5094595;28;20200;-81
2023/05/22 14:47:58;;;;;;;5.97;4.80;;;29.30;58.40;;;;;;5096636;28;20177;-82
2023/05/22 14:50:23;;;;;;;4.77;4.37;;;28.00;64.90;;;;;;5094870;28;20267;-82
2023/05/22 14:52:49;;;;;;;5.23;4.67;;;27.90;62.20;;;;;;5095300;28;20353;-82
2023/05/22 14:55:15;;;;;;;4.63;4.23;;;27.50;62.30;;;;;;5095979;28;20166;-81
2023/05/22 14:57:41;;;;;;;5.57;4.73;;;27.10;61.10;;;;;;5094600;28;20172;-80
2023/05/22 15:00:08;;;;;;;7.00;5.17;;;26.70;62.00;;;;;;5094321;28;20608;-80
2023/05/22 15:02:34;;;;;;;10.47;4.77;;;26.50;68.00;;;;;;5096234;28;20188;-81
2023/05/22 15:05:00;;;;;;;5.67;4.73;;;26.30;62.60;;;;;;5098122;28;20179;-80
2023/05/22 15:07:26;;;;;;;8.07;4.97;;;26.20;63.70;;;;;;5100353;28;20168;-80
2023/05/22 15:09:51;;;;;;;8.07;4.87;;;26.10;65.10;;;;;;5099654;28;20172;-81
2023/05/22 15:12:17;;;;;;;6.40;4.97;;;25.90;68.10;;;;;;5099084;28;20199;-81
2023/05/22 15:14:43;;;;;;;8.17;5.10;;;25.90;72.20;;;;;;5099860;28;20692;-80
2023/05/22 15:17:08;;;;;;;5.90;4.40;;;25.70;66.50;;;;;;5103595;28;20180;-84
2023/05/22 15:19:34;;;;;;;6.50;5.63;;;25.60;65.30;;;;;;5103815;28;20206;-81
2023/05/22 15:22:00;;;;;;;5.57;5.00;;;25.50;71.90;;;;;;5100664;28;20309;-83
2023/05/22 15:24:26;;;;;;;6.27;5.43;;;25.40;70.50;;;;;;5100970;28;20225;-82
2023/05/22 15:26:51;;;;;;;8.30;5.00;;;25.40;69.60;;;;;;5099941;28;20176;-84
2023/05/22 15:29:17;;;;;;;9.77;5.60;;;25.30;69.40;;;;;;5103064;28;20175;-84
2023/05/22 15:31:43;;;;;;;6.27;5.30;;;25.20;68.10;;;;;;5103174;28;20200;-82
2023/05/22 15:34:09;;;;;;;6.47;5.77;;;25.10;67.80;;;;;;5102061;28;20200;-80
2023/05/22 15:36:39;;;;;;;7.90;6.13;;;24.90;70.20;;;;;;5103032;28;20535;-83
2023/05/22 15:39:04;;;;;;;7.63;6.00;;;24.70;71.90;;;;;;5103110;28;20171;-83
2023/05/22 15:41:30;;;;;;;8.17;6.00;;;24.60;74.00;;;;;;5102842;28;20194;-82
2023/05/22 15:43:56;;;;;;;7.60;6.60;;;24.50;76.00;;;;;;5105373;28;20188;-80
2023/05/22 15:46:21;;;;;;;7.67;6.87;;;24.40;77.00;;;;;;5105345;28;20172;-81
2023/05/22 16:22:25;;;;;;;6.87;5.93;;;22.00;81.10;;;;;;5077842;27;20557;-79
2023/05/22 16:33:51;;;;;;;6.53;5.37;;;21.70;83.30;;;;;;5104600;28;20289;-80
2023/05/22 16:44:05;;;;;;;7.33;4.87;;;21.50;79.30;;;;;;5144560;27;20298;-79
2023/05/22 16:55:01;;;;;;;6.73;5.70;;;21.50;87.20;;;;;;5165426;27;20473;-80
2023/05/22 17:05:50;;;;;;;8.73;5.20;;;21.40;95.10;;;;;;5182711;27;20538;-79
2023/05/22 17:19:51;;;;;;;7.23;5.40;;;21.60;88.20;;;;;;5083082;28;20589;-85
